Time;durP1;ratioP1;P1;durP2;ratioP2;P2;SDS_P1;SDS_P2;PMS_P1;PMS_P2;Temp;Humidity;BMP_temperature;BMP_pressure;BME280_temperature;BME280_humidity;BME280_pressure;Samples;Min_cycle;Max_cycle;Signal;HPM_P1;HPM_P2
2023/09/01 00:01:55;;;;;;;5.50;1.77;;;19.10;99.90;;;;;;4247098;28;20039;-59
2023/09/01 00:03:57;;;;;;;4.60;1.38;;;19.10;99.90;;;;;;4247313;28;20623;-58
2023/09/01 00:06:02;;;;;;;4.65;1.40;;;19.10;99.90;;;;;;4246731;28;20491;-59
2023/09/01 00:08:05;;;;;;;3.80;1.65;;;19.10;99.90;;;;;;4247094;27;20074;-59
2023/09/01 00:10:08;;;;;;;3.83;1.23;;;19.00;99.90;;;;;;4250664;27;20047;-59
2023/09/01 00:12:10;;;;;;;5.57;1.90;;;19.10;99.90;;;;;;4250173;27;20099;-59
2023/09/01 00:14:12;;;;;;;4.25;1.25;;;19.10;99.90;;;;;;4250554;27;20051;-59
2023/09/01 00:16:14;;;;;;;4.07;1.30;;;19.10;99.90;;;;;;4246567;27;20131;-59
2023/09/01 00:18:16;;;;;;;4.93;1.60;;;19.10;99.90;;;;;;4267651;27;20043;-60
2023/09/01 00:20:18;;;;;;;6.03;1.75;;;19.20;99.90;;;;;;4267483;27;20066;-59
2023/09/01 00:22:22;;;;;;;5.47;1.80;;;19.10;99.90;;;;;;4268086;27;20501;-59
2023/09/01 00:24:24;;;;;;;5.45;1.80;;;19.10;99.90;;;;;;4249353;27;20481;-59
2023/09/01 00:26:26;;;;;;;5.28;1.42;;;19.10;99.90;;;;;;4266276;27;20043;-57
2023/09/01 00:28:28;;;;;;;2.03;1.35;;;19.10;99.90;;;;;;4267371;27;20046;-60
2023/09/01 00:30:30;;;;;;;5.63;1.20;;;19.10;99.90;;;;;;4248410;27;20522;-59
2023/09/01 00:32:33;;;;;;;7.47;1.70;;;19.10;99.90;;;;;;4249032;27;20087;-57
2023/09/01 00:34:35;;;;;;;5.57;1.83;;;19.10;99.90;;;;;;4267736;27;20049;-58
2023/09/01 00:36:37;;;;;;;4.53;1.42;;;19.10;99.90;;;;;;4266334;27;20050;-59
2023/09/01 00:38:40;;;;;;;4.22;1.48;;;19.00;99.90;;;;;;4267242;27;20042;-58
2023/09/01 00:40:42;;;;;;;5.85;1.55;;;19.00;99.90;;;;;;4267102;27;20052;-59
2023/09/01 00:42:44;;;;;;;4.82;1.67;;;19.00;99.90;;;;;;4267432;27;20046;-59
2023/09/01 00:44:47;;;;;;;7.18;1.85;;;19.00;99.90;;;;;;4267132;27;20122;-58
2023/09/01 00:46:49;;;;;;;3.70;1.35;;;19.00;99.90;;;;;;4266312;27;20119;-58
2023/09/01 00:48:51;;;;;;;4.32;1.55;;;19.00;99.90;;;;;;4267392;27;20539;-59
2023/09/01 00:50:54;;;;;;;5.38;1.63;;;19.10;99.90;;;;;;4267663;27;20129;-59
2023/09/01 00:52:56;;;;;;;6.20;1.75;;;19.10;99.90;;;;;;4267881;27;20088;-59
2023/09/01 00:55:00;;;;;;;7.75;1.95;;;19.10;99.90;;;;;;4267547;27;20038;-61
2023/09/01 00:57:03;;;;;;;3.10;1.40;;;19.10;99.90;;;;;;4266648;27;20403;-59
2023/09/01 00:59:05;;;;;;;4.60;1.60;;;19.10;99.90;;;;;;4267222;27;20050;-59
2023/09/01 01:01:07;;;;;;;6.85;2.05;;;19.10;99.90;;;;;;4266997;27;20050;-58
2023/09/01 01:03:10;;;;;;;5.63;1.63;;;19.00;99.90;;;;;;4267132;27;20066;-59
2023/09/01 01:05:16;;;;;;;3.55;1.60;;;19.10;99.90;;;;;;4266986;27;20054;-59
2023/09/01 01:07:27;;;;;;;5.32;1.77;;;19.10;99.90;;;;;;4265996;27;20480;-58
2023/09/01 01:09:38;;;;;;;8.30;1.77;;;19.00;99.90;;;;;;4266342;27;20066;-58
2023/09/01 01:11:48;;;;;;;4.25;1.77;;;19.10;99.90;;;;;;4266704;27;20051;-59
2023/09/01 01:13:55;;;;;;;7.93;1.85;;;19.10;99.90;;;;;;4266988;27;20047;-58
2023/09/01 01:15:58;;;;;;;4.25;1.63;;;19.10;99.90;;;;;;4253829;27;20079;-59
2023/09/01 01:18:04;;;;;;;5.97;1.45;;;19.10;99.90;;;;;;4230835;28;20069;-59
2023/09/01 01:20:24;;;;;;;9.15;1.73;;;19.10;99.90;;;;;;4248462;27;20128;-59
2023/09/01 01:22:38;;;;;;;7.03;1.88;;;19.10;99.90;;;;;;4249679;27;20373;-58
2023/09/01 01:24:42;;;;;;;2.67;1.17;;;19.10;99.90;;;;;;4249075;27;20396;-59
2023/09/01 01:26:44;;;;;;;6.88;1.80;;;19.10;99.90;;;;;;4248273;27;20100;-59
2023/09/01 01:28:46;;;;;;;7.40;1.92;;;19.10;99.90;;;;;;4249509;27;20074;-58
2023/09/01 01:30:49;;;;;;;5.90;1.75;;;19.10;99.90;;;;;;4249530;27;20047;-60
2023/09/01 01:32:51;;;;;;;4.35;1.40;;;19.10;99.90;;;;;;4249451;27;20456;-59
2023/09/01 01:35:01;;;;;;;4.90;1.48;;;19.10;99.90;;;;;;4231166;28;20053;-59
2023/09/01 01:37:10;;;;;;;4.28;1.38;;;19.10;99.90;;;;;;4248374;27;20100;-59
2023/09/01 01:39:17;;;;;;;5.00;1.40;;;19.10;99.90;;;;;;4249011;27;20150;-58
2023/09/01 01:41:27;;;;;;;6.78;1.80;;;19.10;99.90;;;;;;4230820;28;20477;-58
2023/09/01 01:43:31;;;;;;;2.22;1.30;;;19.10;99.90;;;;;;4249335;27;20130;-59
2023/09/01 01:45:35;;;;;;;4.05;1.55;;;19.10;99.90;;;;;;4249230;27;20445;-59
2023/09/01 01:47:38;;;;;;;9.77;1.53;;;19.10;99.90;;;;;;4248238;27;20047;-59
2023/09/01 01:49:40;;;;;;;4.35;1.40;;;19.10;99.90;;;;;;4249286;27;20447;-58
2023/09/01 01:51:42;;;;;;;3.38;1.48;;;19.00;99.90;;;;;;4249123;27;20130;-59
2023/09/01 01:53:44;;;;;;;8.20;1.88;;;19.10;99.90;;;;;;4248364;27;20102;-60
2023/09/01 01:55:46;;;;;;;6.00;1.55;;;19.10;99.90;;;;;;4249132;27;20397;-58
2023/09/01 01:57:49;;;;;;;4.53;1.35;;;19.10;99.90;;;;;;4248048;27;20092;-58
2023/09/01 01:59:53;;;;;;;6.38;2.08;;;19.10;99.90;;;;;;4249048;27;20047;-58
2023/09/01 02:01:55;;;;;;;4.72;1.60;;;19.10;99.90;;;;;;4248875;27;20142;-59
2023/09/01 02:03:57;;;;;;;3.95;1.55;;;19.20;99.90;;;;;;4248888;27;20126;-58
2023/09/01 02:05:59;;;;;;;2.20;1.38;;;19.10;99.90;;;;;;4248843;27;20074;-58
2023/09/01 02:08:02;;;;;;;6.78;1.63;;;19.10;99.90;;;;;;4229355;28;20046;-63
2023/09/01 02:10:08;;;;;;;5.13;1.33;;;19.10;99.90;;;;;;4249325;27;20057;-58
2023/09/01 02:12:10;;;;;;;5.95;1.77;;;19.10;99.90;;;;;;4231086;28;20122;-59
2023/09/01 02:14:13;;;;;;;5.93;1.77;;;19.10;99.90;;;;;;4249518;27;20047;-58
2023/09/01 02:16:15;;;;;;;3.78;1.20;;;19.10;99.90;;;;;;4248549;27;20035;-57
2023/09/01 02:18:18;;;;;;;5.72;1.30;;;19.10;99.90;;;;;;4249163;27;20519;-64
2023/09/01 02:20:21;;;;;;;4.47;1.60;;;19.10;99.90;;;;;;4248994;27;20062;-59
2023/09/01 02:22:23;;;;;;;5.47;1.17;;;19.10;99.90;;;;;;4249102;27;20054;-60
2023/09/01 02:24:25;;;;;;;3.83;1.50;;;19.10;99.90;;;;;;4249040;27;20138;-59
2023/09/01 02:26:27;;;;;;;6.00;1.48;;;19.10;99.90;;;;;;4248252;27;20036;-61
2023/09/01 02:28:29;;;;;;;4.25;1.10;;;19.10;99.90;;;;;;4248872;27;20122;-59
2023/09/01 02:30:32;;;;;;;3.03;1.40;;;19.10;99.90;;;;;;4249422;27;20074;-64
2023/09/01 02:32:35;;;;;;;3.20;1.73;;;19.10;99.90;;;;;;4248793;27;20118;-59
2023/09/01 02:34:37;;;;;;;6.05;1.63;;;19.00;99.90;;;;;;4249372;27;20374;-58
2023/09/01 02:36:40;;;;;;;4.82;1.42;;;19.00;99.90;;;;;;4248121;27;20054;-60
2023/09/01 02:38:42;;;;;;;5.45;1.70;;;19.00;99.90;;;;;;4249064;27;20047;-58
2023/09/01 02:40:44;;;;;;;6.35;1.63;;;19.00;99.90;;;;;;4249243;27;20549;-58
2023/09/01 02:42:46;;;;;;;4.70;1.40;;;19.00;99.90;;;;;;4248987;27;20070;-58
2023/09/01 02:44:48;;;;;;;5.45;1.60;;;19.00;99.90;;;;;;4248414;27;20043;-58
2023/09/01 02:46:51;;;;;;;6.05;1.67;;;19.00;99.90;;;;;;4247345;27;20051;-57
2023/09/01 02:48:53;;;;;;;5.93;1.80;;;19.00;99.90;;;;;;4247909;27;20054;-59
2023/09/01 02:50:55;;;;;;;7.15;1.73;;;19.00;99.90;;;;;;4247822;27;20111;-58
2023/09/01 02:52:57;;;;;;;3.75;1.45;;;19.00;99.90;;;;;;4247975;27;20039;-58
2023/09/01 02:55:00;;;;;;;6.95;1.65;;;18.90;99.90;;;;;;4248043;27;20126;-58
2023/09/01 02:57:03;;;;;;;4.57;1.50;;;19.00;99.90;;;;;;4247098;27;20087;-58
2023/09/01 02:59:05;;;;;;;9.93;1.85;;;19.00;99.90;;;;;;4248278;27;20517;-59
2023/09/01 03:01:08;;;;;;;4.38;1.60;;;19.00;99.90;;;;;;4247833;27;20396;-58
2023/09/01 03:03:12;;;;;;;4.55;1.30;;;19.00;99.90;;;;;;4247840;27;20063;-58
2023/09/01 03:05:14;;;;;;;4.47;1.33;;;19.00;99.90;;;;;;4247547;27;20046;-59
2023/09/01 03:07:17;;;;;;;8.55;1.77;;;18.90;99.90;;;;;;4246979;27;20043;-58
2023/09/01 03:09:20;;;;;;;5.22;1.67;;;18.90;99.90;;;;;;4247972;27;20407;-58
2023/09/01 03:11:23;;;;;;;4.68;1.25;;;18.90;99.90;;;;;;4247707;27;20043;-59
2023/09/01 03:13:25;;;;;;;5.90;1.50;;;18.90;99.90;;;;;;4247919;27;20055;-58
2023/09/01 03:15:27;;;;;;;4.40;1.40;;;18.90;99.90;;;;;;4237853;27;20147;-59
2023/09/01 03:17:29;;;;;;;3.58;1.40;;;18.80;99.90;;;;;;4263838;27;20042;-58
2023/09/01 03:19:32;;;;;;;5.03;1.45;;;18.80;99.90;;;;;;4264588;27;20049;-59
2023/09/01 03:21:35;;;;;;;5.10;1.40;;;18.80;99.90;;;;;;4264646;27;20050;-58
2023/09/01 03:23:37;;;;;;;3.95;1.30;;;18.80;99.90;;;;;;4264712;27;20039;-58
2023/09/01 03:25:39;;;;;;;6.97;1.67;;;18.80;99.90;;;;;;4264912;27;20043;-58
2023/09/01 03:27:42;;;;;;;4.93;1.60;;;18.80;99.90;;;;;;4263720;27;20043;-58
2023/09/01 03:29:44;;;;;;;7.07;1.83;;;18.70;99.90;;;;;;4265491;27;20077;-58
2023/09/01 03:31:46;;;;;;;2.55;1.42;;;18.70;99.90;;;;;;4264902;27;20416;-58
2023/09/01 03:33:48;;;;;;;4.85;1.55;;;18.70;99.90;;;;;;4264577;27;20114;-58
2023/09/01 03:35:52;;;;;;;5.28;1.48;;;18.70;99.90;;;;;;4264312;27;20486;-58
2023/09/01 03:37:53;;;;;;;5.78;1.42;;;18.70;99.90;;;;;;4263673;27;20042;-59
2023/09/01 03:39:56;;;;;;;5.88;1.50;;;18.70;99.90;;;;;;4246397;27;20479;-59
2023/09/01 03:41:58;;;;;;;5.43;1.48;;;18.70;99.90;;;;;;4264375;27;20142;-58
2023/09/01 03:44:00;;;;;;;5.90;1.40;;;18.70;99.90;;;;;;4263979;27;20066;-58
2023/09/01 03:46:02;;;;;;;3.20;1.15;;;18.70;99.90;;;;;;4264535;27;20039;-59
2023/09/01 03:48:05;;;;;;;5.10;1.20;;;18.70;99.90;;;;;;4263782;27;20053;-59
2023/09/01 03:50:07;;;;;;;8.32;1.92;;;18.70;99.90;;;;;;4264477;27;20555;-59
2023/09/01 03:52:11;;;;;;;3.58;1.63;;;18.70;99.90;;;;;;4264509;27;20042;-58
2023/09/01 03:54:13;;;;;;;6.28;1.30;;;18.70;99.90;;;;;;4264652;27;20073;-58
2023/09/01 03:56:17;;;;;;;3.47;1.20;;;18.70;99.90;;;;;;4264494;27;20046;-58
2023/09/01 03:58:19;;;;;;;4.68;1.45;;;18.70;99.90;;;;;;4263466;27;20049;-60
2023/09/01 04:00:22;;;;;;;4.45;1.30;;;18.70;99.90;;;;;;4264550;27;20050;-58
2023/09/01 04:02:24;;;;;;;4.97;1.55;;;18.70;99.90;;;;;;4264307;27;20050;-59
2023/09/01 04:04:27;;;;;;;5.50;1.58;;;18.70;99.90;;;;;;4264121;27;20121;-58
2023/09/01 04:06:29;;;;;;;3.53;1.52;;;18.70;99.90;;;;;;4264145;27;20115;-59
2023/09/01 04:08:34;;;;;;;7.50;1.52;;;18.70;99.90;;;;;;4263527;27;20050;-59
2023/09/01 04:10:38;;;;;;;4.68;1.52;;;18.70;99.90;;;;;;4264599;27;20057;-59
2023/09/01 04:12:41;;;;;;;4.35;1.70;;;18.70;99.90;;;;;;4264445;27;20074;-59
2023/09/01 04:14:43;;;;;;;5.60;1.58;;;18.70;99.90;;;;;;4262051;27;20470;-59
2023/09/01 04:16:45;;;;;;;2.72;1.52;;;18.70;99.90;;;;;;4246380;28;20046;-59
2023/09/01 04:18:47;;;;;;;3.47;1.42;;;18.70;99.90;;;;;;4246834;28;20531;-59
2023/09/01 04:20:50;;;;;;;11.00;2.05;;;18.70;99.90;;;;;;4247103;28;20047;-58
2023/09/01 04:22:52;;;;;;;5.63;1.38;;;18.60;99.90;;;;;;4247257;28;20075;-59
2023/09/01 04:24:56;;;;;;;9.82;2.20;;;18.60;99.90;;;;;;4248225;28;20252;-59
2023/09/01 04:26:58;;;;;;;6.35;1.83;;;18.60;99.90;;;;;;4247249;28;20047;-60
2023/09/01 04:29:00;;;;;;;3.60;1.48;;;18.60;99.90;;;;;;4247528;28;20052;-59
2023/09/01 04:31:02;;;;;;;3.40;1.40;;;18.60;99.90;;;;;;4247108;28;20126;-59
2023/09/01 04:33:05;;;;;;;5.75;1.95;;;18.60;99.90;;;;;;4246637;28;20050;-58
2023/09/01 04:35:07;;;;;;;4.80;1.45;;;18.60;99.90;;;;;;4247045;28;20051;-59
2023/09/01 04:37:10;;;;;;;5.45;1.77;;;18.60;99.90;;;;;;4246339;28;20184;-59
2023/09/01 04:39:13;;;;;;;6.93;1.80;;;18.60;99.90;;;;;;4247075;28;20086;-59
2023/09/01 04:41:17;;;;;;;3.95;1.63;;;18.60;99.90;;;;;;4246860;28;20047;-59
2023/09/01 04:43:20;;;;;;;4.53;1.90;;;18.60;99.90;;;;;;4247005;28;20416;-58
2023/09/01 04:45:22;;;;;;;4.00;1.63;;;18.60;99.90;;;;;;4229965;28;20044;-62
2023/09/01 04:47:25;;;;;;;5.50;1.50;;;18.60;99.90;;;;;;4228666;28;20040;-59
2023/09/01 04:49:27;;;;;;;4.35;2.00;;;18.60;99.90;;;;;;4246723;28;20047;-59
2023/09/01 04:51:29;;;;;;;5.07;1.52;;;18.60;99.90;;;;;;4246980;28;20054;-59
2023/09/01 04:53:32;;;;;;;4.47;1.45;;;18.60;99.90;;;;;;4246906;28;20423;-59
2023/09/01 04:55:34;;;;;;;4.93;1.38;;;18.60;99.90;;;;;;4247342;27;20051;-59
2023/09/01 04:57:37;;;;;;;5.35;1.70;;;18.60;99.90;;;;;;4249126;27;20063;-58
2023/09/01 04:59:39;;;;;;;4.32;1.83;;;18.60;99.90;;;;;;4249928;27;20067;-59
2023/09/01 05:01:42;;;;;;;6.40;1.70;;;18.60;99.90;;;;;;4249526;27;20044;-59
2023/09/01 05:03:44;;;;;;;5.57;1.70;;;18.60;99.90;;;;;;4250021;27;20549;-60
2023/09/01 05:05:47;;;;;;;3.22;1.50;;;18.60;99.90;;;;;;4249974;27;20127;-60
2023/09/01 05:07:49;;;;;;;5.50;1.80;;;18.50;99.90;;;;;;4248930;27;20453;-60
2023/09/01 05:09:51;;;;;;;3.95;1.50;;;18.60;99.90;;;;;;4249724;27;20130;-59
2023/09/01 05:11:54;;;;;;;3.70;1.45;;;18.50;99.90;;;;;;4249801;27;20043;-59
2023/09/01 05:13:57;;;;;;;4.95;1.92;;;18.60;99.90;;;;;;4249546;27;20150;-58
2023/09/01 05:15:59;;;;;;;5.50;2.15;;;18.60;99.90;;;;;;4244061;27;20102;-59
2023/09/01 05:18:02;;;;;;;6.57;1.95;;;18.60;99.90;;;;;;4265729;27;20049;-59
2023/09/01 05:20:09;;;;;;;7.97;1.80;;;18.60;99.90;;;;;;4266671;27;20043;-59
2023/09/01 05:22:11;;;;;;;4.15;1.80;;;18.60;99.90;;;;;;4266792;27;20054;-58
2023/09/01 05:24:13;;;;;;;5.50;1.70;;;18.60;99.90;;;;;;4266638;27;20784;-59
2023/09/01 05:26:15;;;;;;;5.50;1.60;;;18.60;99.90;;;;;;4266728;27;20043;-59
2023/09/01 05:28:17;;;;;;;5.50;2.00;;;18.60;99.90;;;;;;4265479;27;20098;-59
2023/09/01 05:30:21;;;;;;;7.28;1.80;;;18.60;99.90;;;;;;4266363;27;20454;-59
2023/09/01 05:32:23;;;;;;;3.45;1.60;;;18.50;99.90;;;;;;4266528;27;20050;-58
2023/09/01 05:34:25;;;;;;;7.32;1.73;;;18.50;99.90;;;;;;4266615;27;20068;-59
2023/09/01 05:36:28;;;;;;;7.35;2.03;;;18.60;99.90;;;;;;4266458;27;20049;-57
2023/09/01 05:38:30;;;;;;;3.50;1.30;;;18.60;99.90;;;;;;4265410;27;20038;-58
2023/09/01 05:40:32;;;;;;;3.95;1.60;;;18.60;99.90;;;;;;4266379;27;20043;-57
2023/09/01 05:42:34;;;;;;;6.00;1.55;;;18.60;99.90;;;;;;4266358;27;20039;-58
2023/09/01 05:44:37;;;;;;;5.63;1.40;;;18.60;99.90;;;;;;4265934;27;20441;-58
2023/09/01 05:46:40;;;;;;;5.63;1.60;;;18.60;99.90;;;;;;4266365;27;20484;-58
2023/09/01 05:48:42;;;;;;;4.72;1.73;;;18.70;99.90;;;;;;4265425;27;20472;-58
2023/09/01 05:50:44;;;;;;;5.82;1.30;;;18.70;99.90;;;;;;4266200;27;20084;-58
2023/09/01 05:52:46;;;;;;;7.20;2.30;;;18.70;99.90;;;;;;4266290;27;20046;-58
2023/09/01 05:54:48;;;;;;;4.07;1.70;;;18.70;99.90;;;;;;4266071;27;20049;-58
2023/09/01 05:56:51;;;;;;;9.98;1.70;;;18.70;99.90;;;;;;4265948;27;20074;-58
2023/09/01 05:58:53;;;;;;;5.45;1.80;;;18.70;99.90;;;;;;4265379;27;20467;-58
2023/09/01 06:00:56;;;;;;;8.60;1.85;;;18.70;99.90;;;;;;4265710;27;20353;-59
2023/09/01 06:03:00;;;;;;;4.65;1.80;;;18.70;99.90;;;;;;4266043;27;20493;-58
2023/09/01 06:05:03;;;;;;;4.53;1.80;;;18.70;99.90;;;;;;4266012;27;20058;-58
2023/09/01 06:07:05;;;;;;;5.25;1.80;;;18.70;99.90;;;;;;4264715;27;20046;-59
2023/09/01 06:09:08;;;;;;;4.15;1.48;;;18.80;99.90;;;;;;4265847;27;20050;-61
2023/09/01 06:11:12;;;;;;;4.53;1.45;;;18.70;99.90;;;;;;4266969;27;20126;-59
2023/09/01 06:13:14;;;;;;;6.43;1.52;;;18.70;99.90;;;;;;4266699;27;20043;-59
2023/09/01 06:15:16;;;;;;;5.75;1.70;;;18.70;99.90;;;;;;4258933;27;20450;-58
2023/09/01 06:17:18;;;;;;;5.63;1.80;;;18.80;99.90;;;;;;4229458;28;20054;-58
2023/09/01 06:19:32;;;;;;;4.75;1.50;;;18.80;99.90;;;;;;4248605;27;20050;-58
2023/09/01 06:21:34;;;;;;;4.05;1.50;;;18.80;99.90;;;;;;4248675;27;20050;-58
2023/09/01 06:23:40;;;;;;;3.38;1.33;;;18.80;99.90;;;;;;4248606;27;20130;-58
2023/09/01 06:25:42;;;;;;;6.72;1.85;;;18.80;99.90;;;;;;4248806;27;20066;-58
2023/09/01 06:27:46;;;;;;;5.18;1.58;;;18.80;99.90;;;;;;4247427;27;20067;-58
2023/09/01 06:29:48;;;;;;;4.00;1.60;;;18.80;99.90;;;;;;4250366;27;20050;-58
2023/09/01 06:31:50;;;;;;;7.90;1.45;;;18.90;99.90;;;;;;4265597;27;20047;-58
2023/09/01 06:33:53;;;;;;;5.75;1.60;;;18.80;99.90;;;;;;4265297;27;20038;-58
2023/09/01 06:35:56;;;;;;;6.28;1.55;;;18.90;99.90;;;;;;4247014;27;20050;-58
2023/09/01 06:37:58;;;;;;;4.78;1.40;;;18.90;99.90;;;;;;4264303;27;20541;-60
2023/09/01 06:40:00;;;;;;;5.97;1.73;;;19.00;99.90;;;;;;4246974;27;20104;-60
2023/09/01 06:42:03;;;;;;;6.47;1.40;;;19.00;99.90;;;;;;4265321;27;20121;-60
2023/09/01 06:44:05;;;;;;;4.32;1.30;;;19.10;99.90;;;;;;4264965;27;20054;-60
2023/09/01 06:46:07;;;;;;;6.15;1.38;;;19.20;99.90;;;;;;4265363;27;20042;-60
2023/09/01 06:48:09;;;;;;;4.55;1.60;;;19.20;99.90;;;;;;4264081;27;20049;-61
2023/09/01 06:50:11;;;;;;;5.75;1.63;;;19.20;99.90;;;;;;4264972;27;20389;-60
2023/09/01 06:52:16;;;;;;;9.38;1.58;;;19.20;99.90;;;;;;4246847;27;20141;-60
2023/09/01 06:54:18;;;;;;;;;;;19.20;99.90;;;;;;4265795;27;20047;-60
2023/09/01 06:56:20;;;;;;;7.13;1.75;;;19.20;99.90;;;;;;4265034;27;19963;-60
2023/09/01 06:58:22;;;;;;;9.70;1.65;;;19.20;99.90;;;;;;4260696;27;20038;-61
2023/09/01 07:00:25;;;;;;;8.13;1.98;;;19.20;99.90;;;;;;4241662;27;20400;-60
2023/09/01 07:02:27;;;;;;;16.65;2.70;;;19.30;99.90;;;;;;4263325;27;20093;-60
2023/09/01 07:04:29;;;;;;;11.52;1.50;;;19.20;99.90;;;;;;4261421;27;20496;-60
2023/09/01 07:06:31;;;;;;;9.70;1.60;;;19.20;99.90;;;;;;4258816;27;20116;-59
2023/09/01 07:08:35;;;;;;;5.43;1.40;;;19.20;99.90;;;;;;4263142;27;20095;-58
2023/09/01 07:10:37;;;;;;;5.38;1.73;;;19.20;99.90;;;;;;4264432;27;20047;-58
2023/09/01 07:12:39;;;;;;;5.40;1.48;;;19.30;99.90;;;;;;4261724;27;20491;-58
2023/09/01 07:14:41;;;;;;;4.60;1.60;;;19.30;99.90;;;;;;4262992;27;20403;-57
2023/09/01 07:16:43;;;;;;;6.90;1.80;;;19.30;99.90;;;;;;4252028;27;20163;-57
2023/09/01 07:18:46;;;;;;;6.13;1.75;;;19.40;99.90;;;;;;4253514;27;20046;-58
2023/09/01 07:20:48;;;;;;;6.85;1.65;;;19.40;99.90;;;;;;4248335;27;20124;-58
2023/09/01 07:22:50;;;;;;;10.40;5.50;;;19.40;99.90;;;;;;4246551;27;20513;-57
2023/09/01 07:24:55;;;;;;;6.03;2.20;;;19.40;99.90;;;;;;4249628;27;20047;-58
2023/09/01 07:26:57;;;;;;;;;;;19.40;99.90;;;;;;4259545;27;20134;-57
2023/09/01 07:28:59;;;;;;;4.03;1.42;;;19.40;99.90;;;;;;4255812;27;19961;-57
2023/09/01 07:31:02;;;;;;;2.35;1.10;;;19.30;99.90;;;;;;4229207;28;20067;-57
2023/09/01 07:33:04;;;;;;;5.95;1.70;;;19.40;99.90;;;;;;4259969;27;20396;-58
2023/09/01 07:35:07;;;;;;;4.93;1.45;;;19.40;99.90;;;;;;4239374;27;20148;-59
2023/09/01 07:37:09;;;;;;;9.68;1.63;;;19.40;99.90;;;;;;4262959;27;20047;-57
2023/09/01 07:39:11;;;;;;;5.85;1.50;;;19.40;99.90;;;;;;4258131;27;20043;-57
2023/09/01 07:41:14;;;;;;;4.55;1.40;;;19.40;99.90;;;;;;4259640;27;20052;-58
2023/09/01 07:43:17;;;;;;;6.25;1.60;;;19.40;99.90;;;;;;4261385;27;20042;-57
2023/09/01 07:45:19;;;;;;;5.57;1.70;;;19.40;99.90;;;;;;4263616;27;20166;-59
2023/09/01 07:47:21;;;;;;;10.35;2.05;;;19.40;99.90;;;;;;4263669;27;20449;-57
2023/09/01 07:49:25;;;;;;;7.07;1.52;;;19.40;99.90;;;;;;4255343;27;20074;-61
2023/09/01 07:51:27;;;;;;;6.35;1.95;;;19.50;99.90;;;;;;4250535;27;20046;-57
2023/09/01 07:53:29;;;;;;;7.03;1.38;;;19.40;99.90;;;;;;4247492;28;20047;-58
2023/09/01 07:55:32;;;;;;;6.50;1.33;;;19.50;99.90;;;;;;4252175;27;20129;-57
2023/09/01 07:57:35;;;;;;;6.43;1.60;;;19.50;99.90;;;;;;4249374;27;20055;-57
2023/09/01 07:59:37;;;;;;;4.50;1.35;;;19.50;99.90;;;;;;4256509;27;20047;-57
2023/09/01 08:01:39;;;;;;;6.45;1.65;;;19.50;99.90;;;;;;4252379;27;20357;-57
2023/09/01 08:03:41;;;;;;;8.38;2.08;;;19.50;99.90;;;;;;4244662;27;20129;-57
2023/09/01 08:05:44;;;;;;;4.03;1.50;;;19.50;99.90;;;;;;4256947;27;20104;-57
2023/09/01 08:07:46;;;;;;;5.25;1.25;;;19.60;99.90;;;;;;4253077;27;20071;-57
2023/09/01 08:09:48;;;;;;;3.92;1.48;;;19.70;99.90;;;;;;4251452;27;20051;-57
2023/09/01 08:11:50;;;;;;;3.45;1.10;;;19.90;99.90;;;;;;4255210;27;20497;-57
2023/09/01 08:13:55;;;;;;;4.88;1.50;;;19.90;99.90;;;;;;4249173;27;20724;-57
2023/09/01 08:15:57;;;;;;;;;;;20.00;99.90;;;;;;4256862;27;20122;-57
2023/09/01 08:17:59;;;;;;;4.68;1.67;;;20.00;99.90;;;;;;4248841;27;19923;-58
2023/09/01 08:20:03;;;;;;;2.03;1.30;;;20.00;99.90;;;;;;4257913;27;20081;-57
2023/09/01 08:22:06;;;;;;;4.70;1.75;;;20.10;99.90;;;;;;4253525;27;20039;-57
2023/09/01 08:24:08;;;;;;;3.15;1.38;;;20.20;99.90;;;;;;4257987;27;20047;-57
2023/09/01 08:26:10;;;;;;;4.32;1.60;;;20.20;99.90;;;;;;4246974;27;20460;-57
2023/09/01 08:28:12;;;;;;;5.97;1.48;;;20.30;99.90;;;;;;4251715;27;20042;-56
2023/09/01 08:30:16;;;;;;;3.80;1.10;;;20.40;99.90;;;;;;4265899;27;20402;-57
2023/09/01 08:32:18;;;;;;;4.78;1.60;;;20.40;99.90;;;;;;4250331;27;20111;-57
2023/09/01 08:34:21;;;;;;;6.80;1.00;;;20.40;99.90;;;;;;4258714;27;20045;-57
2023/09/01 08:36:23;;;;;;;4.80;1.95;;;20.30;99.90;;;;;;4262306;27;20039;-58
2023/09/01 08:38:25;;;;;;;6.35;1.67;;;20.40;99.90;;;;;;4259699;27;20073;-57
2023/09/01 08:40:27;;;;;;;2.13;1.30;;;20.30;99.90;;;;;;4262923;27;20103;-57
2023/09/01 08:42:30;;;;;;;5.07;1.20;;;20.30;99.90;;;;;;4266101;27;20046;-57
2023/09/01 08:44:35;;;;;;;4.15;1.25;;;20.30;99.90;;;;;;4267184;27;20075;-57
2023/09/01 08:46:40;;;;;;;3.65;1.30;;;20.30;99.90;;;;;;4257014;27;20478;-57
2023/09/01 08:48:42;;;;;;;6.65;1.70;;;20.40;99.90;;;;;;4252307;27;20116;-57
2023/09/01 08:50:44;;;;;;;5.60;1.60;;;20.50;99.90;;;;;;4261793;27;20121;-57
2023/09/01 08:52:47;;;;;;;11.93;1.60;;;20.60;99.90;;;;;;4251572;27;20066;-56
2023/09/01 08:54:49;;;;;;;9.75;1.40;;;20.70;99.90;;;;;;4249564;27;20046;-57
2023/09/01 08:56:52;;;;;;;4.85;1.10;;;20.80;99.90;;;;;;4249672;27;20043;-56
2023/09/01 08:58:54;;;;;;;3.47;1.20;;;21.00;99.90;;;;;;4233661;27;20134;-56
2023/09/01 09:00:56;;;;;;;6.35;2.13;;;20.90;99.90;;;;;;4262532;27;20141;-57
2023/09/01 09:03:00;;;;;;;6.28;1.30;;;20.90;99.90;;;;;;4262466;27;20042;-56
2023/09/01 09:05:12;;;;;;;4.03;1.15;;;20.80;99.90;;;;;;4266745;27;20050;-58
2023/09/01 09:07:15;;;;;;;4.85;1.85;;;20.90;99.90;;;;;;4264984;27;20070;-57
2023/09/01 09:09:18;;;;;;;10.87;2.07;;;21.00;99.90;;;;;;4262851;27;20050;-55
2023/09/01 09:11:21;;;;;;;5.93;1.35;;;20.90;99.90;;;;;;4254836;27;20054;-56
2023/09/01 09:13:24;;;;;;;10.15;1.92;;;21.00;99.90;;;;;;4245253;27;20051;-70
2023/09/01 09:15:26;;;;;;;3.03;1.35;;;21.10;99.90;;;;;;4256393;27;20095;-67
2023/09/01 09:17:44;;;;;;;3.47;1.35;;;21.30;99.90;;;;;;4265664;27;20038;-58
2023/09/01 09:19:56;;;;;;;6.50;1.60;;;21.50;99.90;;;;;;4247799;27;20180;-57
2023/09/01 09:22:05;;;;;;;3.58;1.38;;;21.50;99.90;;;;;;4266740;27;20095;-56
2023/09/01 09:24:08;;;;;;;4.00;1.27;;;21.50;99.90;;;;;;4266329;27;20042;-56
2023/09/01 09:26:25;;;;;;;2.80;1.20;;;21.50;99.90;;;;;;4266625;27;20066;-56
2023/09/01 09:28:27;;;;;;;6.53;1.50;;;21.60;99.90;;;;;;4265308;27;20047;-57
2023/09/01 09:30:29;;;;;;;3.47;1.33;;;21.60;99.90;;;;;;4248224;27;20047;-56
2023/09/01 09:32:31;;;;;;;3.35;1.58;;;21.50;99.90;;;;;;4266660;27;20580;-58
2023/09/01 09:34:33;;;;;;;7.50;1.60;;;21.50;99.90;;;;;;4262462;27;20122;-56
2023/09/01 09:36:37;;;;;;;7.15;1.90;;;21.60;99.90;;;;;;4261627;27;20073;-57
2023/09/01 09:38:40;;;;;;;3.97;1.35;;;21.70;99.90;;;;;;4265129;27;20081;-57
2023/09/01 09:40:54;;;;;;;5.97;1.42;;;21.80;99.90;;;;;;4266132;27;20437;-57
2023/09/01 09:42:59;;;;;;;4.43;1.33;;;21.80;99.90;;;;;;4265988;27;20063;-60
2023/09/01 09:45:02;;;;;;;5.45;2.03;;;22.00;99.90;;;;;;4262350;27;20051;-57
2023/09/01 09:47:10;;;;;;;13.52;7.72;;;22.00;99.90;;;;;;4252664;27;20542;-66
2023/09/01 09:49:14;;;;;;;3.30;1.48;;;22.00;99.90;;;;;;4255187;27;20043;-57
2023/09/01 09:51:20;;;;;;;4.15;1.20;;;22.00;99.90;;;;;;4259002;27;20446;-57
2023/09/01 09:53:27;;;;;;;4.90;1.38;;;22.00;99.90;;;;;;4258573;27;20093;-57
2023/09/01 09:55:30;;;;;;;3.90;1.30;;;22.00;99.90;;;;;;4258068;27;20068;-56
2023/09/01 09:57:33;;;;;;;8.20;1.98;;;22.20;99.90;;;;;;4258312;27;21603;-57
2023/09/01 09:59:42;;;;;;;8.15;2.33;;;22.20;99.90;;;;;;4253356;27;20043;-57
2023/09/01 10:01:46;;;;;;;6.90;2.03;;;22.10;99.90;;;;;;4258440;27;20648;-56
2023/09/01 10:03:54;;;;;;;4.72;1.65;;;22.10;99.90;;;;;;4257109;27;20047;-58
2023/09/01 10:06:05;;;;;;;8.13;1.73;;;22.00;99.90;;;;;;4254749;27;20071;-56
2023/09/01 10:08:07;;;;;;;6.82;2.67;;;22.00;99.90;;;;;;4258214;27;20289;-56
2023/09/01 10:10:12;;;;;;;3.75;2.00;;;22.10;99.90;;;;;;4257773;27;20540;-57
2023/09/01 10:12:15;;;;;;;7.05;2.03;;;22.10;99.90;;;;;;4255086;27;20047;-56
2023/09/01 10:14:20;;;;;;;3.75;1.83;;;22.10;99.90;;;;;;4252790;27;20039;-57
2023/09/01 10:16:25;;;;;;;9.52;2.35;;;22.00;99.90;;;;;;4255294;27;20096;-58
2023/09/01 10:18:29;;;;;;;4.95;1.50;;;22.00;99.90;;;;;;4254731;27;20043;-58
2023/09/01 10:20:32;;;;;;;11.20;2.35;;;22.00;99.90;;;;;;4252740;27;20110;-58
2023/09/01 10:22:38;;;;;;;4.53;2.00;;;22.00;99.90;;;;;;4255040;27;20042;-58
2023/09/01 10:25:08;;;;;;;5.15;1.90;;;22.00;99.90;;;;;;4254517;27;20043;-58
2023/09/01 10:27:11;;;;;;;4.35;1.95;;;22.00;99.90;;;;;;4256758;27;20042;-57
2023/09/01 10:29:28;;;;;;;7.07;2.28;;;22.00;99.90;;;;;;4252685;27;20068;-58
2023/09/01 10:31:33;;;;;;;14.48;2.90;;;22.00;99.90;;;;;;4254536;27;20376;-58
2023/09/01 10:33:35;;;;;;;7.55;2.05;;;22.00;99.90;;;;;;4254816;27;20401;-58
2023/09/01 10:35:40;;;;;;;6.97;1.92;;;22.10;99.90;;;;;;4255154;27;20043;-56
2023/09/01 10:37:42;;;;;;;;;;;22.10;99.90;;;;;;4254566;27;20066;-57
2023/09/01 10:39:44;;;;;;;5.60;2.08;;;22.20;99.90;;;;;;4254061;27;19927;-57
2023/09/01 10:41:50;;;;;;;4.10;2.10;;;22.10;99.90;;;;;;4255539;27;20043;-58
2023/09/01 10:43:55;;;;;;;21.70;4.03;;;22.20;99.90;;;;;;4254788;27;20039;-57